createdAt,value
2019-02-02T00:00:44.670Z,68.60
2019-02-02T00:01:44.681Z,63.80
2019-02-02T00:02:44.697Z,64.00
2019-02-02T00:03:44.704Z,69.20
2019-02-02T00:04:44.715Z,67.80
2019-02-02T00:05:44.726Z,72.40
2019-02-02T00:06:44.739Z,66.50
2019-02-02T00:07:44.749Z,62.50
2019-02-02T00:08:44.762Z,75.50
2019-02-02T00:09:44.771Z,68.10
2019-02-02T00:10:44.782Z,64.00
2019-02-02T00:11:44.794Z,71.30
2019-02-02T00:12:44.805Z,63.90
2019-02-02T00:13:44.819Z,66.60
2019-02-02T00:14:45.280Z,66.50
2019-02-02T00:15:44.838Z,72.50
2019-02-02T00:16:44.850Z,65.30
2019-02-02T00:17:44.861Z,70.90
2019-02-02T00:18:44.876Z,65.90
2019-02-02T00:19:44.884Z,69.10
2019-02-02T00:20:44.946Z,69.40
2019-02-02T00:21:44.905Z,69.90
2019-02-02T00:22:44.915Z,65.20
2019-02-02T00:23:44.926Z,79.20
2019-02-02T00:24:44.955Z,72.10
2019-02-02T00:25:44.950Z,69.80
2019-02-02T00:26:44.959Z,71.50
2019-02-02T00:27:44.971Z,75.80
2019-02-02T00:28:44.979Z,83.70
2019-02-02T00:29:44.993Z,67.10
2019-02-02T00:30:45.003Z,67.70
2019-02-02T00:31:45.012Z,71.10
2019-02-02T00:32:45.023Z,73.20
2019-02-02T00:33:45.035Z,74.50
2019-02-02T00:34:45.049Z,75.40
2019-02-02T00:35:45.060Z,76.20
2019-02-02T00:36:45.068Z,78.10
2019-02-02T00:37:45.081Z,70.20
2019-02-02T00:38:45.088Z,72.10
2019-02-02T00:39:45.102Z,77.30
2019-02-02T00:40:45.117Z,71.80
2019-02-02T00:41:45.124Z,78.90
2019-02-02T00:42:45.135Z,74.40
2019-02-02T00:43:45.146Z,77.00
2019-02-02T00:44:45.157Z,78.60
2019-02-02T00:45:45.169Z,79.20
2019-02-02T00:46:45.178Z,81.00
2019-02-02T00:47:45.189Z,76.80
2019-02-02T00:48:45.201Z,84.90
2019-02-02T00:49:45.215Z,79.30
2019-02-02T00:50:45.226Z,71.90
2019-02-02T00:51:45.233Z,74.30
2019-02-02T00:52:45.245Z,78.10
2019-02-02T00:53:45.258Z,83.40
2019-02-02T00:54:45.266Z,80.20
2019-02-02T00:55:45.277Z,85.70
2019-02-02T00:56:45.300Z,78.20
2019-02-02T00:57:52.914Z,81.40
2019-02-02T00:58:45.311Z,86.90
2019-02-02T00:59:45.322Z,75.40
2019-02-02T01:00:45.331Z,83.60
2019-02-02T01:01:45.344Z,80.80
2019-02-02T01:02:45.354Z,91.40
2019-02-02T01:03:45.369Z,80.00
2019-02-02T01:04:45.376Z,88.40
2019-02-02T01:05:45.388Z,84.00
2019-02-02T01:06:45.414Z,79.50
2019-02-02T01:07:45.492Z,87.90
2019-02-02T01:08:45.491Z,85.10
2019-02-02T01:09:45.491Z,87.40
2019-02-02T01:10:45.485Z,88.90
2019-02-02T01:11:45.487Z,91.90
2019-02-02T01:12:45.548Z,95.90
2019-02-02T01:13:45.560Z,97.00
2019-02-02T01:14:45.566Z,95.90
2019-02-02T01:15:45.550Z,94.90
2019-02-02T01:16:45.544Z,93.40
2019-02-02T01:17:45.546Z,96.30
2019-02-02T01:18:45.547Z,86.50
2019-02-02T01:19:45.545Z,93.20
2019-02-02T01:20:45.554Z,88.30
2019-02-02T01:21:45.565Z,89.80
2019-02-02T01:22:45.571Z,92.60
2019-02-02T01:23:45.582Z,98.40
2019-02-02T01:24:45.592Z,92.10
2019-02-02T01:25:45.605Z,99.50
2019-02-02T01:26:45.614Z,97.10
2019-02-02T01:27:45.633Z,101.40
2019-02-02T01:28:45.636Z,95.70
2019-02-02T01:29:45.645Z,101.10
2019-02-02T01:30:45.657Z,100.80
2019-02-02T01:31:45.667Z,98.30
2019-02-02T01:32:45.677Z,96.50
2019-02-02T01:33:45.687Z,102.40
2019-02-02T01:34:45.698Z,103.70
2019-02-02T01:35:45.709Z,109.60
2019-02-02T01:36:45.719Z,101.20
2019-02-02T01:37:45.731Z,98.00
2019-02-02T01:38:45.740Z,113.30
2019-02-02T01:39:45.750Z,102.20
2019-02-02T01:40:45.761Z,101.50
2019-02-02T01:41:45.773Z,114.50
2019-02-02T01:42:45.787Z,101.40
2019-02-02T01:43:45.793Z,107.30
2019-02-02T01:44:45.804Z,105.10
2019-02-02T01:45:45.813Z,110.50
2019-02-02T01:46:45.823Z,108.80
2019-02-02T01:47:45.838Z,105.40
2019-02-02T01:48:45.846Z,112.90
2019-02-02T01:49:45.855Z,112.50
2019-02-02T01:50:45.865Z,111.60
2019-02-02T01:51:45.878Z,113.90
2019-02-02T01:52:45.884Z,104.40
2019-02-02T01:53:45.898Z,109.80
2019-02-02T01:54:45.905Z,119.20
2019-02-02T01:55:45.917Z,119.10
2019-02-02T01:56:45.928Z,126.70
2019-02-02T01:57:45.938Z,119.00
2019-02-02T01:58:45.948Z,127.60
2019-02-02T01:59:45.958Z,118.50
2019-02-02T02:00:45.970Z,116.20
2019-02-02T02:01:45.979Z,117.50
2019-02-02T02:02:45.992Z,124.80
2019-02-02T02:03:46.000Z,125.90
2019-02-02T02:04:46.012Z,110.50
2019-02-02T02:05:46.022Z,120.10
2019-02-02T02:06:46.031Z,130.70
2019-02-02T02:07:46.040Z,120.70
2019-02-02T02:08:46.054Z,119.50
2019-02-02T02:09:46.063Z,118.80
2019-02-02T02:10:46.081Z,123.10
2019-02-02T02:11:46.082Z,123.50
2019-02-02T02:12:46.094Z,129.20
2019-02-02T02:13:46.101Z,121.00
2019-02-02T02:14:46.114Z,130.30
2019-02-02T02:15:46.129Z,125.80
2019-02-02T02:16:46.133Z,133.50
2019-02-02T02:17:46.144Z,144.70
2019-02-02T02:18:46.154Z,139.20
2019-02-02T02:19:46.165Z,131.20
2019-02-02T02:20:46.175Z,138.90
2019-02-02T02:21:46.184Z,137.70
2019-02-02T02:22:46.195Z,140.10
2019-02-02T02:23:46.219Z,133.40
2019-02-02T02:24:46.215Z,126.90
2019-02-02T02:25:46.229Z,134.70
2019-02-02T02:26:46.236Z,133.30
2019-02-02T02:27:46.245Z,151.80
2019-02-02T02:28:46.257Z,145.30
2019-02-02T02:29:46.265Z,138.10
2019-02-02T02:30:47.409Z,138.40
2019-02-02T02:31:46.288Z,137.90
2019-02-02T02:32:46.298Z,139.50
2019-02-02T02:33:46.310Z,140.10
2019-02-02T02:34:46.317Z,139.90
2019-02-02T02:35:46.338Z,129.30
2019-02-02T02:36:46.340Z,143.50
2019-02-02T02:37:46.354Z,142.20
2019-02-02T02:38:46.359Z,154.50
2019-02-02T02:39:46.370Z,138.40
2019-02-02T02:40:46.381Z,139.20
2019-02-02T02:41:46.392Z,149.90
2019-02-02T02:42:46.400Z,140.60
2019-02-02T02:43:46.411Z,144.50
2019-02-02T02:44:46.420Z,148.30
2019-02-02T02:45:46.433Z,145.30
2019-02-02T02:46:46.442Z,151.50
2019-02-02T02:47:46.459Z,141.30
2019-02-02T02:48:46.462Z,145.00
2019-02-02T02:49:46.473Z,148.00
2019-02-02T02:50:46.486Z,145.80
2019-02-02T02:51:46.494Z,145.80
2019-02-02T02:52:46.503Z,150.70
2019-02-02T02:53:46.515Z,148.90
2019-02-02T02:54:46.523Z,141.30
2019-02-02T02:55:46.534Z,153.30
2019-02-02T02:56:46.548Z,143.90
2019-02-02T02:57:46.556Z,147.40
2019-02-02T02:58:46.566Z,140.20
2019-02-02T02:59:46.577Z,136.80
2019-02-02T03:00:46.587Z,139.80
2019-02-02T03:01:46.600Z,142.90
2019-02-02T03:02:46.611Z,141.40
2019-02-02T03:03:46.620Z,144.20
2019-02-02T03:04:46.630Z,158.00
2019-02-02T03:05:46.640Z,142.20
2019-02-02T03:06:46.648Z,138.20
2019-02-02T03:07:46.661Z,143.50
2019-02-02T03:08:46.670Z,150.10
2019-02-02T03:09:46.681Z,152.20
2019-02-02T03:10:46.690Z,158.30
2019-02-02T03:11:46.701Z,161.40
2019-02-02T03:12:46.740Z,159.30
2019-02-02T03:13:46.723Z,156.30
2019-02-02T03:14:46.733Z,158.30
2019-02-02T03:15:46.746Z,154.70
2019-02-02T03:16:46.754Z,156.10
2019-02-02T03:17:46.766Z,158.80
2019-02-02T03:18:46.774Z,149.10
2019-02-02T03:19:46.793Z,175.40
2019-02-02T03:20:46.800Z,160.20
2019-02-02T03:21:46.804Z,148.60
2019-02-02T03:22:46.819Z,157.30
2019-02-02T03:23:46.827Z,152.10
2019-02-02T03:24:46.840Z,162.90
2019-02-02T03:25:46.848Z,170.70
2019-02-02T03:26:46.858Z,152.60
2019-02-02T03:27:46.870Z,158.00
2019-02-02T03:28:53.591Z,155.80
2019-02-02T03:29:46.892Z,164.80
2019-02-02T03:30:46.904Z,151.70
2019-02-02T03:31:48.647Z,170.70
2019-02-02T03:32:46.924Z,163.60
2019-02-02T03:33:46.934Z,159.90
2019-02-02T03:34:46.941Z,157.20
2019-02-02T03:35:46.952Z,166.30
2019-02-02T03:36:46.963Z,160.60
2019-02-02T03:37:46.976Z,155.70
2019-02-02T03:38:46.983Z,166.00
2019-02-02T03:39:46.994Z,152.80
2019-02-02T03:40:47.003Z,166.00
2019-02-02T03:41:47.015Z,162.30
2019-02-02T03:42:47.024Z,166.20
2019-02-02T03:43:47.049Z,155.60
2019-02-02T03:44:47.047Z,147.70
2019-02-02T03:45:47.058Z,147.30
2019-02-02T03:46:47.069Z,152.40
2019-02-02T03:47:47.080Z,146.30
2019-02-02T03:48:47.089Z,154.80
2019-02-02T03:49:47.104Z,141.30
2019-02-02T03:50:47.111Z,146.20
2019-02-02T03:51:47.122Z,164.70
2019-02-02T03:52:47.131Z,154.70
2019-02-02T03:53:47.143Z,147.10
2019-02-02T03:54:47.157Z,148.60
2019-02-02T03:55:47.168Z,152.40
2019-02-02T03:56:47.170Z,152.90
2019-02-02T03:57:47.195Z,149.80
2019-02-02T03:58:47.269Z,152.70
2019-02-02T03:59:47.266Z,150.20
2019-02-02T04:00:47.275Z,158.70
2019-02-02T04:01:47.302Z,143.70
2019-02-02T04:02:47.271Z,160.30
2019-02-02T04:03:47.295Z,152.70
2019-02-02T04:04:47.336Z,156.00
2019-02-02T04:05:47.336Z,158.50
2019-02-02T04:06:47.326Z,157.70
2019-02-02T04:07:47.346Z,150.60
2019-02-02T04:08:47.335Z,157.50
2019-02-02T04:09:47.331Z,156.80
2019-02-02T04:10:47.329Z,143.40
2019-02-02T04:11:47.336Z,140.60
2019-02-02T04:12:47.349Z,149.00
2019-02-02T04:13:47.355Z,143.00
2019-02-02T04:14:47.370Z,149.50
2019-02-02T04:15:47.376Z,150.10
2019-02-02T04:16:47.393Z,148.10
2019-02-02T04:17:47.399Z,153.80
2019-02-02T04:18:47.409Z,152.40
2019-02-02T04:19:47.421Z,141.60
2019-02-02T04:20:47.428Z,148.70
2019-02-02T04:21:47.447Z,150.50
2019-02-02T04:22:47.451Z,143.40
2019-02-02T04:23:47.464Z,163.80
2019-02-02T04:24:47.478Z,152.00
2019-02-02T04:25:47.483Z,165.00
2019-02-02T04:26:47.496Z,149.90
2019-02-02T04:27:47.515Z,161.40
2019-02-02T04:28:47.519Z,159.20
2019-02-02T04:29:47.532Z,162.00
2019-02-02T04:30:47.539Z,148.60
2019-02-02T04:31:47.556Z,165.40
2019-02-02T04:32:47.561Z,154.00
2019-02-02T04:33:47.576Z,156.50
2019-02-02T04:34:47.583Z,168.60
2019-02-02T04:35:47.592Z,165.80
2019-02-02T04:36:47.603Z,155.20
2019-02-02T04:37:47.614Z,148.10
2019-02-02T04:38:47.625Z,164.00
2019-02-02T04:39:47.640Z,158.80
2019-02-02T04:40:47.647Z,165.80
2019-02-02T04:41:47.659Z,164.60
2019-02-02T04:42:47.670Z,153.70
2019-02-02T04:43:47.680Z,162.80
2019-02-02T04:44:47.691Z,151.20
2019-02-02T04:45:47.707Z,150.70
2019-02-02T04:46:47.714Z,160.90
2019-02-02T04:47:47.723Z,145.70
2019-02-02T04:48:47.742Z,149.10
2019-02-02T04:49:47.745Z,164.10
2019-02-02T04:50:47.754Z,165.30
2019-02-02T04:51:47.763Z,162.10
2019-02-02T04:52:47.777Z,170.30
2019-02-02T04:53:47.793Z,159.10
2019-02-02T04:54:47.799Z,162.60
2019-02-02T04:55:47.810Z,162.10
2019-02-02T04:56:47.820Z,170.20
2019-02-02T04:57:47.832Z,160.20
2019-02-02T04:58:47.845Z,153.30
2019-02-02T04:59:47.851Z,165.90
2019-02-02T05:00:47.867Z,160.40
2019-02-02T05:01:47.876Z,171.30
2019-02-02T05:02:47.888Z,167.90
2019-02-02T05:03:47.903Z,157.30
2019-02-02T05:04:47.909Z,160.00
2019-02-02T05:05:47.921Z,162.60
2019-02-02T05:06:47.928Z,162.30
2019-02-02T05:07:47.939Z,162.10
2019-02-02T05:08:47.948Z,173.30
2019-02-02T05:09:47.964Z,164.90
2019-02-02T05:10:47.970Z,170.10
2019-02-02T05:11:47.984Z,165.60
2019-02-02T05:12:47.996Z,171.50
2019-02-02T05:13:48.004Z,156.80
2019-02-02T05:14:48.015Z,159.40
2019-02-02T05:15:48.027Z,150.80
2019-02-02T05:16:48.036Z,148.50
2019-02-02T05:17:48.049Z,158.70
2019-02-02T05:18:48.060Z,148.20
2019-02-02T05:19:48.068Z,154.70
2019-02-02T05:20:48.080Z,155.00
2019-02-02T05:21:48.089Z,152.20
2019-02-02T05:22:48.103Z,162.70
2019-02-02T05:23:48.113Z,155.50
2019-02-02T05:24:48.125Z,154.50
2019-02-02T05:25:48.138Z,147.90
2019-02-02T05:26:48.145Z,149.20
2019-02-02T05:27:48.153Z,152.90
2019-02-02T05:28:48.169Z,148.40
2019-02-02T05:29:48.176Z,154.00
2019-02-02T05:30:48.185Z,157.60
2019-02-02T05:31:48.201Z,158.50
2019-02-02T05:32:48.213Z,167.20
2019-02-02T05:33:48.221Z,149.50
2019-02-02T05:34:48.231Z,145.30
2019-02-02T05:35:48.243Z,153.30
2019-02-02T05:36:48.253Z,150.20
2019-02-02T05:37:48.265Z,151.70
2019-02-02T05:38:48.277Z,140.40
2019-02-02T05:39:48.287Z,151.30
2019-02-02T05:40:48.298Z,158.50
2019-02-02T05:41:48.309Z,148.10
2019-02-02T05:42:48.318Z,158.80
2019-02-02T05:43:48.329Z,164.60
2019-02-02T05:44:48.340Z,157.00
2019-02-02T05:45:48.351Z,135.70
2019-02-02T05:46:48.362Z,143.00
2019-02-02T05:47:48.396Z,151.60
2019-02-02T05:48:48.385Z,153.30
2019-02-02T05:49:49.687Z,153.00
2019-02-02T05:50:48.406Z,156.30
2019-02-02T05:51:48.416Z,155.40
2019-02-02T05:52:48.426Z,158.40
2019-02-02T05:53:48.438Z,153.10
2019-02-02T05:54:48.449Z,142.90
2019-02-02T05:55:48.460Z,154.20
2019-02-02T05:56:48.470Z,152.30
2019-02-02T05:57:48.481Z,147.20
2019-02-02T05:58:48.492Z,150.70
2019-02-02T05:59:52.882Z,153.50
2019-02-02T06:00:48.513Z,141.60
2019-02-02T06:01:48.525Z,152.30
2019-02-02T06:02:48.535Z,140.20
2019-02-02T06:03:48.552Z,143.70
2019-02-02T06:04:48.557Z,153.20
2019-02-02T06:05:48.571Z,137.00
2019-02-02T06:06:48.577Z,144.50
2019-02-02T06:07:48.590Z,157.20
2019-02-02T06:08:48.601Z,141.30
2019-02-02T06:09:48.613Z,145.40
2019-02-02T06:10:48.623Z,136.20
2019-02-02T06:11:48.636Z,136.50
2019-02-02T06:12:48.657Z,142.00
2019-02-02T06:13:48.655Z,141.60
2019-02-02T06:14:48.667Z,141.30
2019-02-02T06:15:48.679Z,137.70
2019-02-02T06:16:48.689Z,145.00
2019-02-02T06:17:48.701Z,142.30
2019-02-02T06:18:48.710Z,142.40
2019-02-02T06:19:48.721Z,148.60
2019-02-02T06:20:48.736Z,139.80
2019-02-02T06:21:48.749Z,140.10
2019-02-02T06:22:48.755Z,141.00
2019-02-02T06:23:48.766Z,138.00
2019-02-02T06:24:48.778Z,143.00
2019-02-02T06:25:48.788Z,143.70
2019-02-02T06:26:48.798Z,141.10
2019-02-02T06:27:48.810Z,141.70
2019-02-02T06:28:48.822Z,140.10
2019-02-02T06:29:48.836Z,142.20
2019-02-02T06:30:48.843Z,145.40
2019-02-02T06:31:48.855Z,138.30
2019-02-02T06:32:48.865Z,143.80
2019-02-02T06:33:48.875Z,145.50
2019-02-02T06:34:48.888Z,142.80
2019-02-02T06:35:48.898Z,141.60
2019-02-02T06:36:48.914Z,144.00
2019-02-02T06:37:48.919Z,157.40
2019-02-02T06:38:48.932Z,146.20
2019-02-02T06:39:48.946Z,134.60
2019-02-02T06:40:48.953Z,147.50
2019-02-02T06:41:48.967Z,151.50
2019-02-02T06:42:48.984Z,134.60
2019-02-02T06:43:49.074Z,149.00
2019-02-02T06:44:49.075Z,143.80
2019-02-02T06:45:49.079Z,140.40
2019-02-02T06:46:49.069Z,145.30
2019-02-02T06:47:49.065Z,133.80
2019-02-02T06:48:49.071Z,147.90
2019-02-02T06:49:49.129Z,146.30
2019-02-02T06:50:49.135Z,148.20
2019-02-02T06:51:49.130Z,135.80
2019-02-02T06:52:49.120Z,147.80
2019-02-02T06:53:49.115Z,138.90
2019-02-02T06:54:49.123Z,146.30
2019-02-02T06:55:49.123Z,140.60
2019-02-02T06:56:49.130Z,144.00
2019-02-02T06:57:49.140Z,149.80
2019-02-02T06:58:49.152Z,128.50
2019-02-02T06:59:49.215Z,137.80
2019-02-02T07:00:49.174Z,155.10
2019-02-02T07:01:49.187Z,143.30
2019-02-02T07:02:49.195Z,142.00
2019-02-02T07:03:49.209Z,140.00
2019-02-02T07:04:49.219Z,138.90
2019-02-02T07:05:49.230Z,140.90
2019-02-02T07:06:49.243Z,145.80
2019-02-02T07:07:49.259Z,149.20
2019-02-02T07:08:49.265Z,128.80
2019-02-02T07:09:49.274Z,130.00
2019-02-02T07:10:49.287Z,135.50
2019-02-02T07:11:49.297Z,137.90
2019-02-02T07:12:49.310Z,132.40
2019-02-02T07:13:49.320Z,138.80
2019-02-02T07:14:49.332Z,139.10
2019-02-02T07:15:49.340Z,132.50
2019-02-02T07:16:49.352Z,140.10
2019-02-02T07:17:49.363Z,127.30
2019-02-02T07:18:49.374Z,128.40
2019-02-02T07:19:49.452Z,128.80
2019-02-02T07:20:49.397Z,141.10
2019-02-02T07:21:49.409Z,137.00
2019-02-02T07:22:49.419Z,129.20
2019-02-02T07:23:49.430Z,141.70
2019-02-02T07:24:50.198Z,134.20
2019-02-02T07:25:49.455Z,135.30
2019-02-02T07:26:49.464Z,142.70
2019-02-02T07:27:49.475Z,132.40
2019-02-02T07:28:49.486Z,139.90
2019-02-02T07:29:49.501Z,126.40
2019-02-02T07:30:49.508Z,136.60
2019-02-02T07:31:49.527Z,130.90
2019-02-02T07:32:49.530Z,134.60
2019-02-02T07:33:49.541Z,140.10
2019-02-02T07:34:49.556Z,126.90
2019-02-02T07:35:49.568Z,120.80
2019-02-02T07:36:49.576Z,126.30
2019-02-02T07:37:49.587Z,130.20
2019-02-02T07:38:49.598Z,126.40
2019-02-02T07:39:49.611Z,129.20
2019-02-02T07:40:49.620Z,132.40
2019-02-02T07:41:49.636Z,127.20
2019-02-02T07:42:49.642Z,134.80
2019-02-02T07:43:49.655Z,136.50
2019-02-02T07:44:49.667Z,133.50
2019-02-02T07:45:49.680Z,132.10
2019-02-02T07:46:49.690Z,130.10
2019-02-02T07:47:49.703Z,146.20
2019-02-02T07:48:49.713Z,132.10
2019-02-02T07:49:49.728Z,142.00
2019-02-02T07:50:49.735Z,139.60
2019-02-02T07:51:49.746Z,126.20
2019-02-02T07:52:49.758Z,133.70
2019-02-02T07:53:49.775Z,138.30
2019-02-02T07:54:49.785Z,131.10
2019-02-02T07:55:49.793Z,125.60
2019-02-02T07:56:49.805Z,140.90
2019-02-02T07:57:49.816Z,139.10
2019-02-02T07:58:49.826Z,142.40
2019-02-02T07:59:49.840Z,139.50
2019-02-02T08:00:49.851Z,142.30
2019-02-02T08:01:49.863Z,142.60
2019-02-02T08:02:49.872Z,146.40
2019-02-02T08:03:49.885Z,137.10
2019-02-02T08:04:49.897Z,136.70
2019-02-02T08:05:49.910Z,143.10
2019-02-02T08:06:49.920Z,131.60
2019-02-02T08:07:49.933Z,139.40
2019-02-02T08:08:49.943Z,130.50
2019-02-02T08:09:49.956Z,133.30
2019-02-02T08:10:49.966Z,137.20
2019-02-02T08:11:49.978Z,142.50
2019-02-02T08:12:49.991Z,133.50
2019-02-02T08:13:50.001Z,140.00
2019-02-02T08:14:50.012Z,142.30
2019-02-02T08:15:50.020Z,136.60
2019-02-02T08:16:52.589Z,138.60
2019-02-02T08:17:50.049Z,127.80
2019-02-02T08:18:50.058Z,133.60
2019-02-02T08:19:50.071Z,142.20
2019-02-02T08:20:50.082Z,129.00
2019-02-02T08:21:50.094Z,136.00
2019-02-02T08:22:50.113Z,136.70
2019-02-02T08:23:50.116Z,140.20
2019-02-02T08:24:50.140Z,128.70
2019-02-02T08:25:50.142Z,129.30
2019-02-02T08:26:50.153Z,131.90
2019-02-02T08:27:50.164Z,134.50
2019-02-02T08:28:50.176Z,139.90
2019-02-02T08:29:50.188Z,135.50
2019-02-02T08:30:52.502Z,127.90
2019-02-02T08:31:50.212Z,136.70
2019-02-02T08:32:50.222Z,137.50
2019-02-02T08:33:50.235Z,133.50
2019-02-02T08:34:50.248Z,136.70
2019-02-02T08:35:50.256Z,132.90
2019-02-02T08:36:50.269Z,125.20
2019-02-02T08:37:50.281Z,133.70
2019-02-02T08:38:50.294Z,133.50
2019-02-02T08:39:50.304Z,131.80
2019-02-02T08:40:50.316Z,140.80
2019-02-02T08:41:50.860Z,128.00
2019-02-02T08:42:50.340Z,142.70
2019-02-02T08:43:50.353Z,136.30
2019-02-02T08:44:50.365Z,131.90
2019-02-02T08:45:50.374Z,139.70
2019-02-02T08:46:50.387Z,144.20
2019-02-02T08:47:50.399Z,142.50
2019-02-02T08:48:50.408Z,137.80
2019-02-02T08:49:50.423Z,131.10
2019-02-02T08:50:50.433Z,136.80
2019-02-02T08:51:50.445Z,135.80
2019-02-02T08:52:50.459Z,131.80
2019-02-02T08:53:50.469Z,140.40
2019-02-02T08:54:50.480Z,128.90
2019-02-02T08:55:51.982Z,125.80
2019-02-02T08:56:50.514Z,136.30
2019-02-02T08:57:50.553Z,139.40
2019-02-02T08:58:50.526Z,132.50
2019-02-02T08:59:50.540Z,137.40
2019-02-02T09:00:50.553Z,135.60
2019-02-02T09:01:50.564Z,135.60
2019-02-02T09:02:50.613Z,128.70
2019-02-02T09:03:50.588Z,133.90
2019-02-02T09:04:50.603Z,123.30
2019-02-02T09:05:50.992Z,133.20
2019-02-02T09:06:50.622Z,134.00
2019-02-02T09:07:50.635Z,133.90
2019-02-02T09:08:50.645Z,131.30
2019-02-02T09:09:50.659Z,128.40
2019-02-02T09:10:50.671Z,128.40
2019-02-02T09:11:50.679Z,139.00
2019-02-02T09:12:50.695Z,131.10
2019-02-02T09:13:50.705Z,133.00
2019-02-02T09:14:50.718Z,143.50
2019-02-02T09:15:50.728Z,127.80
2019-02-02T09:16:50.741Z,130.70
2019-02-02T09:17:50.754Z,135.30
2019-02-02T09:18:51.302Z,124.80
2019-02-02T09:19:50.796Z,129.70
2019-02-02T09:20:50.873Z,127.60
2019-02-02T09:21:50.886Z,137.20
2019-02-02T09:23:02.149Z,137.70
2019-02-02T09:23:50.870Z,127.10
2019-02-02T09:24:51.923Z,131.10
2019-02-02T09:25:50.875Z,130.30
2019-02-02T09:26:50.935Z,135.10
2019-02-02T09:27:50.929Z,122.00
2019-02-02T09:28:50.937Z,115.90
2019-02-02T09:29:50.937Z,131.70
2019-02-02T09:30:50.934Z,129.60
2019-02-02T09:31:50.928Z,126.10
2019-02-02T09:32:50.937Z,133.60
2019-02-02T09:33:50.947Z,134.20
2019-02-02T09:34:50.956Z,122.40
2019-02-02T09:35:50.975Z,128.30
2019-02-02T09:36:50.980Z,125.90
2019-02-02T09:37:50.993Z,126.00
2019-02-02T09:38:51.006Z,126.90
2019-02-02T09:39:51.015Z,128.40
2019-02-02T09:40:51.027Z,126.30
2019-02-02T09:41:51.042Z,130.10
2019-02-02T09:42:51.056Z,122.60
2019-02-02T09:43:51.069Z,126.40
2019-02-02T09:44:51.076Z,137.60
2019-02-02T09:45:51.169Z,121.70
2019-02-02T09:46:51.099Z,130.90
2019-02-02T09:47:51.113Z,123.40
2019-02-02T09:48:51.124Z,126.70
2019-02-02T09:49:51.136Z,128.20
2019-02-02T09:50:51.207Z,140.80
2019-02-02T09:51:51.159Z,132.20
2019-02-02T09:52:51.169Z,137.60
2019-02-02T09:53:53.450Z,146.60
2019-02-02T09:54:51.195Z,137.10
2019-02-02T09:55:51.213Z,139.30
2019-02-02T09:56:51.221Z,135.40
2019-02-02T09:57:55.193Z,141.50
2019-02-02T09:58:51.244Z,133.30
2019-02-02T09:59:51.256Z,137.80
2019-02-02T10:00:51.270Z,135.20
2019-02-02T10:01:51.281Z,147.80
2019-02-02T10:02:51.292Z,136.00
2019-02-02T10:03:51.304Z,141.50
2019-02-02T10:04:51.317Z,142.00
2019-02-02T10:05:51.329Z,134.50
2019-02-02T10:06:51.340Z,139.50
2019-02-02T10:07:51.353Z,136.80
2019-02-02T10:08:51.365Z,132.90
2019-02-02T10:09:51.377Z,136.40
2019-02-02T10:10:51.387Z,142.60
2019-02-02T10:11:51.400Z,144.40
2019-02-02T10:12:51.414Z,141.70
2019-02-02T10:13:52.194Z,134.30
2019-02-02T10:14:51.438Z,137.60
2019-02-02T10:15:51.448Z,142.10
2019-02-02T10:16:51.461Z,139.10
2019-02-02T10:17:51.476Z,136.10
2019-02-02T10:18:51.485Z,140.00
2019-02-02T10:19:51.499Z,141.90
2019-02-02T10:21:03.058Z,127.50
2019-02-02T10:21:51.523Z,142.20
2019-02-02T10:22:51.535Z,137.70
2019-02-02T10:23:51.546Z,131.60
2019-02-02T10:24:51.558Z,137.60
2019-02-02T10:25:51.579Z,135.40
2019-02-02T10:26:51.588Z,135.30
2019-02-02T10:27:51.596Z,142.60
2019-02-02T10:28:51.609Z,126.30
2019-02-02T10:29:51.621Z,146.90
2019-02-02T10:30:51.630Z,130.60
2019-02-02T10:31:51.644Z,142.60
2019-02-02T10:32:51.655Z,143.20
2019-02-02T10:33:51.666Z,126.80
2019-02-02T10:34:51.682Z,137.10
2019-02-02T10:35:51.692Z,120.50
2019-02-02T10:36:51.705Z,140.50
2019-02-02T10:37:51.720Z,131.80
2019-02-02T10:38:51.728Z,141.50
2019-02-02T10:39:51.741Z,126.40
2019-02-02T10:40:51.755Z,129.10
2019-02-02T10:41:51.767Z,123.50
2019-02-02T10:42:51.778Z,131.40
2019-02-02T10:43:51.791Z,134.80
2019-02-02T10:44:51.804Z,134.30
2019-02-02T10:45:51.815Z,128.90
2019-02-02T10:46:51.828Z,128.70
2019-02-02T10:47:51.841Z,129.80
2019-02-02T10:48:51.852Z,133.80
2019-02-02T10:49:51.865Z,131.50
2019-02-02T10:50:51.880Z,131.10
2019-02-02T10:51:51.890Z,132.60
2019-02-02T10:52:51.904Z,138.80
2019-02-02T10:53:51.915Z,133.90
2019-02-02T10:54:51.925Z,142.40
2019-02-02T10:55:51.938Z,132.40
2019-02-02T10:56:51.952Z,132.30
2019-02-02T10:57:51.965Z,135.30
2019-02-02T10:58:51.975Z,129.20
2019-02-02T10:59:51.994Z,117.90
2019-02-02T11:00:52.005Z,138.20
2019-02-02T11:01:52.013Z,118.80
2019-02-02T11:02:52.138Z,129.50
2019-02-02T11:03:52.042Z,145.40
2019-02-02T11:04:53.483Z,138.40
2019-02-02T11:05:52.186Z,141.90
2019-02-02T11:06:52.106Z,129.80
2019-02-02T11:07:54.304Z,141.30
2019-02-02T11:08:52.103Z,153.50
2019-02-02T11:09:52.137Z,136.40
2019-02-02T11:10:52.203Z,137.40
2019-02-02T11:11:52.188Z,136.20
2019-02-02T11:12:52.151Z,150.10
2019-02-02T11:13:52.302Z,150.50
2019-02-02T11:14:52.211Z,138.50
2019-02-02T11:15:52.321Z,142.50
2019-02-02T11:16:52.215Z,149.50
2019-02-02T11:17:52.252Z,155.90
2019-02-02T11:18:52.271Z,151.10
2019-02-02T11:19:52.317Z,158.50
2019-02-02T11:20:52.546Z,152.60
2019-02-02T11:21:52.334Z,152.00
2019-02-02T11:22:52.410Z,149.90
2019-02-02T11:23:52.441Z,150.20
2019-02-02T11:24:52.435Z,149.70
2019-02-02T11:25:52.319Z,150.10
2019-02-02T11:26:52.325Z,150.90
2019-02-02T11:27:52.476Z,148.40
2019-02-02T11:28:52.488Z,142.60
2019-02-02T11:29:52.391Z,142.20
2019-02-02T11:30:52.401Z,153.00
2019-02-02T11:32:02.514Z,143.40
2019-02-02T11:32:52.401Z,142.70
2019-02-02T11:33:52.412Z,146.70
2019-02-02T11:34:52.426Z,137.30
2019-02-02T11:35:52.438Z,146.00
2019-02-02T11:36:52.452Z,146.70
2019-02-02T11:37:52.464Z,149.00
2019-02-02T11:38:52.478Z,164.10
2019-02-02T11:39:52.495Z,145.50
2019-02-02T11:40:52.505Z,142.10
2019-02-02T11:41:52.515Z,139.80
2019-02-02T11:42:52.528Z,143.90
2019-02-02T11:43:52.538Z,136.00
2019-02-02T11:44:52.554Z,151.40
2019-02-02T11:45:52.566Z,145.80
2019-02-02T11:46:52.582Z,134.60
2019-02-02T11:47:52.594Z,149.00
2019-02-02T11:48:52.615Z,145.40
2019-02-02T11:49:52.674Z,149.60
2019-02-02T11:50:52.715Z,149.60
2019-02-02T11:51:52.700Z,146.20
2019-02-02T11:52:52.678Z,149.60
2019-02-02T11:53:52.702Z,149.50
2019-02-02T11:54:52.757Z,141.00
2019-02-02T11:55:52.760Z,138.70
2019-02-02T11:56:52.754Z,144.90
2019-02-02T11:57:52.746Z,148.80
2019-02-02T11:58:52.745Z,142.60
2019-02-02T11:59:52.750Z,140.70
2019-02-02T12:00:52.755Z,153.40
2019-02-02T12:01:52.775Z,158.20
2019-02-02T12:02:52.780Z,157.00
2019-02-02T12:03:52.794Z,147.70
2019-02-02T12:04:52.805Z,159.70
2019-02-02T12:05:52.819Z,150.60
2019-02-02T12:06:52.829Z,148.90
2019-02-02T12:07:52.842Z,147.30
2019-02-02T12:08:52.855Z,155.10
2019-02-02T12:09:52.870Z,157.60
2019-02-02T12:10:52.883Z,154.60
2019-02-02T12:11:52.895Z,148.60
2019-02-02T12:12:52.907Z,158.60
2019-02-02T12:13:52.918Z,158.20
2019-02-02T12:14:52.933Z,159.90
2019-02-02T12:15:52.953Z,171.30
2019-02-02T12:16:52.958Z,159.20
2019-02-02T12:17:52.968Z,163.10
2019-02-02T12:18:52.985Z,154.40
2019-02-02T12:19:52.994Z,173.00
2019-02-02T12:20:53.006Z,175.00
2019-02-02T12:21:53.020Z,170.90
2019-02-02T12:22:53.030Z,157.60
2019-02-02T12:23:53.042Z,158.60
2019-02-02T12:24:53.054Z,165.80
2019-02-02T12:25:53.261Z,175.40
2019-02-02T12:26:53.079Z,165.80
2019-02-02T12:27:53.092Z,171.00
2019-02-02T12:28:53.105Z,174.10
2019-02-02T12:29:53.117Z,158.80
2019-02-02T12:30:53.131Z,171.80
2019-02-02T12:31:53.141Z,168.20